KCRP/CRP METAR and TAF weather

Enter ICAO airport designator
Station Type Date Time Source
KCRP METAR 2018/01/16 09:12 UTC NOAA

KCRP 160912Z 35028G33KT 10SM FEW031 SCT055 OVC100 13/12 A3033 RMK AO2 PK WND 36033/0910 PRESRR T01280117 $


Station Type Date Time Source
KCRP Decoded METAR 2018/01/16 09:12 UTC NOAA

CORPUS CHRISTI INTERNATIONAL , TX, United States (KCRP) 27-46N 97-31W 16M
Jan 16, 2018 - 04:12 AM EST / 2018.01.16 0912 UTC
Wind: from the N (350 degrees) at 32 MPH (28 KT) gusting to 38 MPH (33 KT):0
Visibility: 10 mile(s):0
Sky conditions: overcast
Temperature: 55.0 F (12.8 C)
Dew Point: 53.1 F (11.7 C)
Relative Humidity: 93%
Pressure (altimeter): 30.33 in. Hg (1027 hPa)
Pressure tendency: rising rapidly
ob: KCRP 160912Z 35028G33KT 10SM FEW031 SCT055 OVC100 13/12 A3033 RMK AO2 PK WND 36033/0910 PRESRR T01280117
cycle: 9

Station Type Date Time Source
KCRP TAF 2018/01/16 06:36 UTC NOAA

TAF KCRP 160533Z 1606/1706 10005KT P6SM SCT030 BKN060
FM160800 07007KT P6SM VCSH SCT025 OVC050
TEMPO 1608/1610 5SM SHRA BR OVC025
FM161000 36022G33KT P6SM -SHRA OVC008
FM161500 01028G38KT P6SM -SHRA OVC012
FM161900 01026G36KT P6SM -FZRA OVC015
TEMPO 1621/1624 5SM -FZRAPL
FM170200 36017G25KT P6SM OVC025


Example: see airport list